Tiempo atmosférico en la estación meteorológica de Ceuta, Ceuta (87 m.)



Fecha
DESCASC
Temp. máxima en grados centígrados (hora)
DESCASC
Temp. mínima en grados centígrados (hora)
DESCASC
Temp. media en grados centígrados
DESCASC
Racha de viento máxima en m/sg (hora)
DESCASC
Velocidad máxima media en intervalos de 10 minutos(hora)
DESCASC
Precipitaciones diarias en mm
DESCASC
Precipitaciones de 00:00 a 06:00 en mm
DESCASC
Precipitaciones de 06:00 a 12:00 en mm
DESCASC
Precipitaciones de 12:00 a 18:00 en mm
DESCASC
Precipitaciones de 18:00 a 24:00 en mm
DESCASC
17-09-2020 23.9 (12:50) 21.4 (04:30) 22.6 9.17 (23:30) 4.44 (12:30) 0 0 0 0 0
16-09-2020 25.6 (13:30) 21.4 (07:20) 23.5 7.22 (13:30) 4.17 (16:00) 0.2 0 0.2 0 0
15-09-2020 25.9 (15:20) 21.7 (07:30) 23.8 6.39 (14:30) 3.61 (13:30) 0 0 0 0 0
14-09-2020 25 (16:50) 21.7 (00:00) 23.4 8.61 (17:00) 5.56 (17:00) 0 0 0 0 0
13-09-2020 26.1 (16:30) 22 (00:00) 24.1 10 (16:10) 5.83 (16:20) 0 0 0 0 0
12-09-2020 26.4 (13:00) 21.3 (00:00) 23.8 8.89 (16:50) 5.83 (14:30) 0 0 0 0 0
11-09-2020 26.5 (14:10) 20.7 (00:00) 23.6 7.78 (14:00) 5.28 (15:20) 0 0 0 0 0
10-09-2020 25.7 (13:00) 20.3 (00:00) 23 6.94 (17:40) 4.72 (18:10) 0 0 0 0 0
09-09-2020 26.2 (14:10) 19.8 (00:00) 23 8.06 (13:30) 5 (15:20) 0 0 0 0 0
08-09-2020 25.7 (11:20) 20.9 (00:00) 23.3 10.56 (15:00) 6.39 (12:50) 0 0 0 0 0
07-09-2020 26.3 (18:40) 20.9 (08:00) 23.6 7.22 (17:20) 5.28 (17:40) 0 0 0 0 0
06-09-2020 26.3 (15:00) 20.7 (00:00) 23.5 8.61 (14:00) 5.56 (14:20) 0 0 0 0 0
05-09-2020 26 (14:40) 21.8 (00:00) 23.9 9.17 (15:10) 5.83 (15:10) 0 0 0 0 0
04-09-2020 26.1 (15:40) 21.6 (00:00) 23.9 11.67 (14:30) 7.5 (14:10) 0 0 0 0 0
03-09-2020 26.4 (13:30) 21.6 (00:00) 24 12.78 (14:00) 7.78 (14:00) 0 0 0 0 0
02-09-2020 25.8 (15:10) 18.6 (00:00) 22.2 8.89 (17:40) 5.28 (16:10) 0 0 0 0 0
01-09-2020 25.8 (15:40) 20.4 (00:00) 23.1 7.22 (15:50) 4.72 (12:30) 0 0 0 0 0
31-08-2020 26.3 (15:50) 22.1 (00:00) 24.2 12.5 (12:50) 7.78 (13:30) 0 0 0 0 0
30-08-2020 25.4 (18:20) 20.1 (00:00) 22.8 11.39 (04:10) 5.56 (10:20) 0 0 0 0 0
29-08-2020 25.2 (18:10) 19.9 (00:00) 22.6 15.56 (10:10) 6.11 (12:20) 0 0 0 0 0
28-08-2020 28.4 (17:20) 22.9 (00:00) 25.6 19.17 (13:00) 7.78 (13:30) 0 0 0 0 0
27-08-2020 27.4 (16:40) 21.3 (00:00) 24.3 6.11 (11:40) 5 (17:30) 0 0 0 0 0
26-08-2020 27.8 (15:50) 21.7 (00:00) 24.8 6.67 (19:00) 4.72 (19:00) 0 0 0 0 0
25-08-2020 28.7 (15:40) 22.4 (00:00) 25.6 8.33 (12:50) 5.28 (14:50) 0 0 0 0 0
24-08-2020 28.6 (15:50) 21.9 (00:00) 25.3 7.22 (15:40) 5 (16:50) 0 0 0 0 0
23-08-2020 30.9 (03:30) 20.7 (00:00) 25.8 8.06 (03:10) 4.72 (14:00) 0 0 0 0 0
22-08-2020 37.1 (16:00) 26.3 (00:00) 31.7 14.72 (05:40) 7.5 (05:30) 0 0 0 0 0
21-08-2020 34.6 (15:40) 20.9 (00:00) 27.7 4.72 (14:30) 3.33 (17:00) 0 0 0 0 0

Gráficas

Temp. máximas Temp. mínimas Temp. medias Precipitaciones Rachas de viento máximas Velocidades máximas media en intervalos de 10 minutos

Datos horarios

Fecha y hora oficial Temperatura (ºC) Velocidad del viento (km/h) Dirección del viento Racha (km/h) Dirección de racha Precipitación (mm) Presión (hPa) Tendencia (hPa) Humedad (%)
2020-09-19 23:00:00 20.7 2 Oeste 18 Oeste 0 1009.8 1.8 80
2020-09-19 22:00:00 21.3 7 Oeste 25 Noroeste 0 1009.1 1.5 79
2020-09-19 21:00:00 22 9 Oeste 25 Oeste 0 1008.3 0.8 76
2020-09-19 20:00:00 22.8 13 Oeste 36 Noroeste 0 1008 0.4 74
2020-09-19 19:00:00 24.6 17 Noroeste 41 Noroeste 0 1007.6 -0.2 65
2020-09-19 18:00:00 26 14 Noroeste 36 Oeste 0 1007.5 -0.6 56
2020-09-19 17:00:00 26.8 12 Noroeste 35 Noroeste 0 1007.6 -- 57
2020-09-19 16:00:00 27.1 13 Noroeste 31 Oeste 0 1007.8 -- 56
2020-09-19 15:00:00 27 15 Noroeste 31 Noroeste 0 1008.1 -- 55
2020-09-19 14:00:00 26.3 9 Noroeste 27 Norte 0 1008.9 -- 59
2020-09-19 13:00:00 23.9 8 Nordeste 13 Nordeste 0 1009.3 -- 67
2020-09-19 12:00:00 22.7 8 Nordeste 16 Nordeste 0 1009.2 -- 73
2020-09-19 11:00:00 24.4 10 Sudeste 19 Sur 0 1008.9 -- 62
2020-09-19 10:00:00 22.7 9 Sur 16 Sur 0 1008.6 -- 68
2020-09-19 09:00:00 20.6 8 Sudoeste 11 Sudoeste 0 1008.3 -- 78
2020-09-19 08:00:00 18.9 5 Sudoeste 8 Oeste 0 1007.8 -- 86
2020-09-19 07:00:00 19.4 3 Sudoeste 8 Sur 0 1007.5 -- 85
2020-09-19 06:00:00 19.9 3 Sudeste 12 Sudoeste 0 1007.3 -- 82
2020-09-19 05:00:00 20 3 Sudoeste 11 Sudoeste 0 1007.2 -- 83
2020-09-19 04:00:00 20.4 4 Oeste 14 Sudoeste 0 1007.3 -- 80
2020-09-19 03:00:00 20.7 8 Oeste 17 Oeste 0 1007.4 -- 79
2020-09-19 02:00:00 20.8 6 Sudoeste 17 Sudoeste 0 1007.6 -- 81
2020-09-19 01:00:00 21 5 Sudoeste 19 Oeste 0 1007.8 -- 80
2020-09-19 00:00:00 21.2 4 Oeste 13 Sudoeste 0 1008 -- 79
2020-09-18 23:00:00 22.2 5 Sudoeste 15 Sudoeste 0 1007.7 -- 74
2020-09-18 22:00:00 22.8 8 Sudoeste 26 Oeste 0 1007 -- 71
2020-09-18 21:00:00 23.4 6 Sudoeste 25 Oeste 0 1006.1 -- 67
2020-09-18 20:00:00 24.7 8 Sudoeste 24 Oeste 0 1005.4 -- 60
2020-09-18 19:00:00 26.1 6 Sudoeste 30 Sudoeste 0 1004.8 -- 56
2020-09-18 18:00:00 26.2 10 Sudoeste 27 Oeste 0 1004.6 -- 58
2020-09-18 17:00:00 26.4 10 Oeste 29 Oeste 0 1004.8 -- 60
2020-09-18 16:00:00 24.2 11 Noroeste 28 Norte 0 1004.6 -- 72
2020-09-18 15:00:00 23.9 6 Sudeste 19 Sur 0 1004.5 -- 76
2020-09-18 14:00:00 23.6 11 Sudeste 22 Sur 0 1004.8 -- 80
2020-09-18 13:00:00 27.2 8 Sudoeste 23 Sudoeste 0 1004.1 -- 63
2020-09-18 12:00:00 24.7 10 Sur 18 Sur 0 1004.2 -- 75
2020-09-18 11:00:00 22.8 7 Sudeste 12 Sudeste 0 1003.9 -- 92
2020-09-18 10:00:00 20.9 3 Sudoeste 9 Oeste 0.2 1002.8 -- 98
2020-09-18 09:00:00 20.6 4 Nordeste 12 Norte 0.4 1002.6 -- 98
2020-09-18 08:00:00 20.5 4 Norte 11 Sur 0 1002.5 -- 95
2020-09-18 07:00:00 20.4 4 Sudeste 20 Sudoeste 0 1002.9 -- 92
2020-09-18 06:00:00 20.4 10 Sur 16 Sudoeste 0 1002.3 -- 94
2020-09-18 05:00:00 20.4 12 Sur 28 Sur 0 1003.3 -- 95
2020-09-18 04:00:00 20.8 10 Sur 18 Sur 0 1003.7 -- 91
2020-09-18 03:00:00 20.7 7 Sur 21 Sur 0 1004.7 -- 88
2020-09-18 02:00:00 20.8 6 Sudoeste 22 Sur 0 1004.8 -- 87
2020-09-18 01:00:00 21.3 10 Sur 31 Sur 0 1004.7 -- 81
2020-09-18 00:00:00 23.6 13 Sur 33 Sudoeste 0 1004.7 -- 65
2020-09-17 23:00:00 22.4 5 Sudeste 12 Sur 0 1005.3 -- 76
2020-09-17 22:00:00 23.3 7 Sur 25 Sudoeste 0 1004.3 -- 68
2020-09-17 21:00:00 23.4 12 Sur 25 Sur 0 1003.3 -- 72
2020-09-17 20:00:00 23.1 11 Sudoeste 30 Sur 0 1003.8 -- 72
2020-09-17 19:00:00 22.4 15 Sur 26 Sudoeste 0 1003.1 -- 80
2020-09-17 18:00:00 22.8 4 Norte 16 Este 0 1003.3 -- 98
2020-09-17 17:00:00 23 10 Norte 23 Noroeste 0 1003.4 -- 97
2020-09-17 16:00:00 23.1 10 Norte 23 Noroeste 0 1003.1 -- 95
2020-09-17 15:00:00 23.7 12 Norte 23 Norte 0 1003.4 -- 93
2020-09-17 14:00:00 23.3 12 Norte 29 Norte 0 1003.8 -- 94
2020-09-17 13:00:00 23.9 15 Norte 30 Norte 0 1004.1 -- 93
2020-09-17 12:00:00 23.6 14 Norte 25 Norte 0 1004.7 -- 94
2020-09-17 11:00:00 23.3 10 Norte 20 Norte 0 1004.5 -- 96
2020-09-17 10:00:00 22.9 9 Norte 17 Norte 0 1004.4 -- 99
2020-09-17 09:00:00 22.5 7 Norte 12 Norte 0 1004.4 -- 99
2020-09-17 08:00:00 22.1 4 Norte 7 Norte 0 1004.2 -- 99
2020-09-17 07:00:00 21.9 4 Norte 10 Este 0 1003.8 -- 99
2020-09-17 06:00:00 21.7 4 Norte 8 Noroeste 0 1003.9 -- 99
2020-09-17 05:00:00 21.5 3 Oeste 6 Norte 0 1004.4 -- 98
2020-09-17 04:00:00 21.7 3 Nordeste 9 Este 0 1004.9 -- 96
2020-09-17 03:00:00 22.5 5 Sudeste 10 Sudeste 0 1005.2 -- 92
2020-09-17 02:00:00 22.4 6 Sur 12 Sudoeste 0 1006.2 -- 93
2020-09-17 01:00:00 22.1 6 Sudoeste 14 Sur 0 1006.2 -- 96
2020-09-17 00:00:00 21.9 7 Sur 15 Sur 0 1006.4 -- 97
2020-09-16 23:00:00 21.9 9 Sudeste 16 Sur 0 1006.1 -- 97
2020-09-16 22:00:00 22.3 6 Sudeste 9 Sudeste 0 1006.6 -- 95
2020-09-16 21:00:00 22.3 6 Sudeste 10 Sudeste 0 1006 -- 95
2020-09-16 20:00:00 22.6 7 Sur 11 Sur 0 1006.1 -- 94
2020-09-16 19:00:00 23.1 7 Sur 15 Sur 0 1006 -- 91
2020-09-16 18:00:00 24.2 9 Sudeste 21 Este 0 1005.9 -- 85
2020-09-16 17:00:00 24.6 14 Este 21 Este 0 1005.9 -- 83
2020-09-16 16:00:00 24.6 15 Este 24 Este 0 1006.3 -- 84
2020-09-16 15:00:00 24.6 14 Este 22 Este 0 1006.9 -- 85
2020-09-16 14:00:00 25 12 Sudeste 26 Este 0 1007.6 -- 83
2020-09-16 13:00:00 25.1 10 Sudeste 18 Sudeste 0 1008.3 -- 84
2020-09-16 12:00:00 23.8 8 Sudeste 15 Sudeste 0 1008.6 -- 91
2020-09-16 11:00:00 22.7 7 Sudeste 12 Sur 0 1008.5 -- 96
2020-09-16 10:00:00 22.1 5 Sudeste 10 Sur 0 1008.5 -- 100
2020-09-16 09:00:00 21.7 3 Sur 8 Sudeste 0.2 1008.3 -- 100
2020-09-16 08:00:00 21.5 5 Sur 10 Este 0 1007.9 -- 100
2020-09-16 07:00:00 21.6 6 Sudeste 12 Este 0 1008.2 -- 100
2020-09-16 06:00:00 21.7 2 Norte 9 Nordeste 0 1008.5 -- 100
2020-09-16 05:00:00 21.7 4 Nordeste 8 Nordeste 0 1008.8 -- 100
2020-09-16 04:00:00 21.9 4 Nordeste 6 Nordeste 0 1009.2 -- 100
2020-09-16 03:00:00 21.6 2 Norte 8 Este 0 1009.4 -- 100
2020-09-16 02:00:00 21.8 3 Nordeste 6 Este 0 1009.8 -- 100
2020-09-16 01:00:00 21.5 3 Nordeste 6 Norte 0 1009.8 -- 100
2020-09-16 00:00:00 21.9 2 Norte 8 Norte 0 1009.9 -- 98
2020-09-15 23:00:00 22.6 3 Sudoeste 8 Sur 0 1009.7 -- 96
2020-09-15 22:00:00 22.8 5 Sur 12 Sur 0 1009.4 -- 96
2020-09-15 21:00:00 23.2 6 Sur 12 Sur 0 1008.9 -- 96
2020-09-15 20:00:00 23.6 8 Sur 14 Sur 0 1008.9 -- 94
2020-09-15 19:00:00 24 8 Sudeste 18 Este 0 1008.8 -- 90
2020-09-15 18:00:00 24.8 10 Sudeste 18 Este 0 1009 -- 87
2020-09-15 17:00:00 24.6 10 Nordeste 17 Este 0 1009.5 -- 84
2020-09-15 16:00:00 24.9 12 Nordeste 20 Nordeste 0 1010 -- 81
2020-09-15 15:00:00 25.4 11 Nordeste 23 Este 0 1010.7 -- 77
2020-09-15 14:00:00 25.1 10 Nordeste 20 Nordeste 0 1011.2 -- 80
2020-09-15 13:00:00 23.5 9 Nordeste 18 Nordeste 0 1011.7 -- 89
2020-09-15 12:00:00 22.9 9 Nordeste 17 Nordeste 0 1011.8 -- 92
2020-09-15 11:00:00 22.7 8 Nordeste 16 Este 0 1011.5 -- 94
2020-09-15 10:00:00 22.3 6 Nordeste 13 Nordeste 0 1011 -- 94
2020-09-15 09:00:00 22 7 Nordeste 16 Nordeste 0 1010.5 -- 92
2020-09-15 08:00:00 21.8 4 Nordeste 11 Nordeste 0 1010 -- 91
2020-09-15 07:00:00 21.8 4 Norte 10 Norte 0 1009.8 -- 92
2020-09-15 06:00:00 22 5 Norte 11 Nordeste 0 1009.8 -- 92
2020-09-15 05:00:00 22.1 3 Norte 13 Nordeste 0 1010.2 -- 93
2020-09-15 04:00:00 22.2 8 Este 14 Este 0 1010.5 -- 93
2020-09-15 03:00:00 22.1 9 Nordeste 20 Este 0 1010.7 -- 95
2020-09-15 02:00:00 22 6 Nordeste 15 Este 0 1011.1 -- 96
2020-09-15 01:00:00 22.2 8 Nordeste 15 Este 0 1011 -- 97
2020-09-15 00:00:00 22.2 8 Nordeste 14 Este 0 1010.9 -- 98
2020-09-14 23:00:00 22.1 6 Nordeste 12 Este 0 1010.8 -- 97
2020-09-14 22:00:00 22 4 Nordeste 12 Nordeste 0 1010.4 -- 97
2020-09-14 21:00:00 22 6 Nordeste 14 Sudeste 0 1009.7 -- 97
2020-09-14 20:00:00 23.5 9 Sudeste 23 Sudeste 0 1009.6 -- 93
2020-09-14 19:00:00 24.1 13 Sudeste 24 Sudeste 0 1009.1 -- 89
2020-09-14 18:00:00 24.5 14 Este 27 Este 0 1008.9 -- 89
2020-09-14 17:00:00 24.7 20 Este 31 Este 0 1009.5 -- 87
2020-09-14 16:00:00 24.5 13 Este 24 Este 0 1010.4 -- 89
2020-09-14 15:00:00 23.5 12 Nordeste 19 Nordeste 0 1010.9 -- 93
2020-09-14 14:00:00 22.8 8 Nordeste 17 Nordeste 0 1011.2 -- 94
2020-09-14 13:00:00 23 11 Nordeste 15 Nordeste 0 1011.3 -- 93
2020-09-14 12:00:00 23 8 Nordeste 14 Nordeste 0 1011.7 -- 92
2020-09-14 11:00:00 23.1 9 Nordeste 16 Nordeste 0 1011.3 -- 92
2020-09-14 10:00:00 22.8 6 Nordeste 24 Este 0 1010.7 -- 93
2020-09-14 09:00:00 23.3 13 Este 19 Este 0 1010.3 -- 94
2020-09-14 08:00:00 22.6 5 Este 19 Este 0 1009.6 -- 95
2020-09-14 07:00:00 22.9 9 Este 17 Este 0 1009.4 -- 95
2020-09-14 06:00:00 21.8 7 Nordeste 15 Nordeste 0 1009.3 -- 96
2020-09-14 05:00:00 22 5 Nordeste 15 Este 0 1009.7 -- 96
2020-09-14 04:00:00 22.9 8 Este 18 Este 0 1010 -- 94
2020-09-14 03:00:00 22.7 10 Este 19 Sudeste 0 1010.4 -- 94
2020-09-14 02:00:00 21.8 5 Norte 13 Nordeste 0 1010.7 -- 96
2020-09-14 01:00:00 22 5 Nordeste 13 Este 0 1011 -- 95
2020-09-14 00:00:00 22 8 Nordeste 14 Nordeste 0 1010.7 -- 95
2020-09-13 23:00:00 22.6 6 Sur 13 Sudeste 0 1011.3 -- 96
2020-09-13 22:00:00 22.5 8 Sur 13 Sur 0 1010.9 -- 96
2020-09-13 21:00:00 22.8 8 Sur 16 Sudeste 0 1009.9 -- 94
2020-09-13 20:00:00 23.3 8 Sudeste 22 Sudeste 0 1009.7 -- 92
2020-09-13 19:00:00 24.3 11 Sudeste 23 Sudeste 0 1009.5 -- 87
2020-09-13 18:00:00 24.6 13 Este 30 Este 0 1009.4 -- 85
2020-09-13 17:00:00 25.7 17 Este 36 Este 0 1009.5 -- 81
2020-09-13 16:00:00 25.4 20 Este 34 Este 0 1009.9 -- 82
2020-09-13 15:00:00 24.8 19 Este 35 Este 0 1010.2 -- 84
2020-09-13 14:00:00 25 19 Este 32 Este 0 1010.4 -- 84
2020-09-13 13:00:00 25 15 Este 31 Sudeste 0 1010.7 -- 83
2020-09-13 12:00:00 24.9 17 Sudeste 27 Sudeste 0 1010.7 -- 84
2020-09-13 11:00:00 24 10 Sudeste 24 Sudeste 0 1010.1 -- 88
2020-09-13 10:00:00 22.4 7 Sudeste 17 Este 0 1009.3 -- 94
2020-09-13 09:00:00 22.1 10 Sudeste 21 Sudeste 0 1008.7 -- 96
2020-09-13 08:00:00 22.2 12 Sudeste 22 Este 0 1008.3 -- 95
2020-09-13 07:00:00 22.4 12 Sudeste 26 Este 0 1008.1 -- 95
2020-09-13 06:00:00 22.7 13 Este 27 Este 0 1007.8 -- 94
2020-09-13 05:00:00 22.1 7 Este 23 Nordeste 0 1007.9 -- 94
2020-09-13 04:00:00 22.1 12 Este 25 Este 0 1007.8 -- 94
2020-09-13 03:00:00 22.2 12 Nordeste 22 Nordeste 0 1008 -- 92
2020-09-13 02:00:00 22.5 14 Este 23 Este 0 1008.4 -- 91
2020-09-13 01:00:00 22.4 7 Este 18 Este 0 1008.3 -- 91
2020-09-13 00:00:00 22.5 10 Este 20 Sudeste 0 1008.2 -- 92
2020-09-12 23:00:00 22.3 10 Sudeste 19 Sudeste 0 1007.8 -- 96
2020-09-12 22:00:00 22.6 10 Sudeste 20 Sudeste 0 1007.1 -- 95
2020-09-12 21:00:00 22.7 13 Sudeste 21 Sudeste 0 1006.3 -- 95
2020-09-12 20:00:00 23.2 12 Sudeste 25 Sudeste 0 1005.8 -- 93
2020-09-12 19:00:00 24.4 13 Sudeste 28 Sudeste 0 1005.7 -- 88
2020-09-12 18:00:00 24.6 17 Sudeste 28 Sudeste 0 1005.5 -- 86
2020-09-12 17:00:00 24.8 19 Este 32 Este 0 1005.5 -- 85
2020-09-12 16:00:00 24.5 16 Este 28 Este 0 1005.8 -- 87
2020-09-12 15:00:00 25.6 17 Este 30 Sudeste 0 1006 -- 82
2020-09-12 14:00:00 25.6 16 Este 29 Sudeste 0 1006.1 -- 79
2020-09-12 13:00:00 26.4 15 Este 32 Este 0 1006.2 -- 77
2020-09-12 12:00:00 25.6 15 Este 23 Este 0 1006.2 -- 80
2020-09-12 11:00:00 24.5 15 Este 25 Este 0 1005.8 -- 85
2020-09-12 10:00:00 23.7 12 Este 24 Este 0 1005.1 -- 89
2020-09-12 09:00:00 22.8 12 Este 22 Este 0 1004.7 -- 91
2020-09-12 08:00:00 22 10 Sudeste 18 Sudeste 0 1004.2 -- 93
2020-09-12 07:00:00 21.5 10 Este 18 Este 0 1003.8 -- 93
2020-09-12 06:00:00 21.5 9 Este 18 Este 0 1003.8 -- 92
2020-09-12 05:00:00 21.3 8 Este 17 Sudeste 0 1003.8 -- 97
2020-09-12 04:00:00 21.4 9 Este 16 Este 0 1003.9 -- 99
2020-09-12 03:00:00 21.4 8 Este 14 Este 0 1004 -- 99
2020-09-12 02:00:00 21.7 6 Sudeste 17 Sudeste 0 1004.1 -- 97
2020-09-12 01:00:00 21.9 9 Sudeste 18 Sudeste 0 1004.1 -- 96
2020-09-12 00:00:00 21.9 9 Sudeste 17 Sur 0 1004.2 -- 96
2020-09-11 23:00:00 22 9 Sudeste 19 Sudeste 0 1003.9 -- 96
2020-09-11 22:00:00 22.1 9 Sudeste 16 Sudeste 0 1003.6 -- 95
2020-09-11 21:00:00 22.4 9 Sudeste 15 Sur 0 1003.1 -- 94
2020-09-11 20:00:00 22.9 8 Sudeste 22 Sudeste 0 1002.9 -- 91
2020-09-11 19:00:00 24.2 12 Sudeste 22 Este 0 1003 -- 84
2020-09-11 18:00:00 25.2 12 Sudeste 25 Sudeste 0 1003.2 -- 79
2020-09-11 17:00:00 25.2 16 Sudeste 27 Este 0 1003.7 -- 78
2020-09-11 16:00:00 25.3 18 Este 28 Este 0 1004.3 -- 76
2020-09-11 15:00:00 26.2 16 Este 27 Este 0 1004.6 -- 73
2020-09-11 14:00:00 26.1 16 Este 28 Sudeste 0 1005.2 -- 74
2020-09-11 13:00:00 24.1 15 Nordeste 23 Nordeste 0 1005.4 -- 82
2020-09-11 12:00:00 23.2 14 Nordeste 22 Nordeste 0 1005.5 -- 85
2020-09-11 11:00:00 24.1 12 Nordeste 22 Este 0 1005.2 -- 83
2020-09-11 10:00:00 23.2 9 Este 21 Este 0 1004.9 -- 88
2020-09-11 09:00:00 21.7 10 Este 18 Nordeste 0 1004.9 -- 96
2020-09-11 08:00:00 21.5 10 Este 20 Este 0 1004.4 -- 94
2020-09-11 07:00:00 21.3 7 Este 15 Este 0 1004.1 -- 96
2020-09-11 06:00:00 21.3 8 Este 17 Este 0 1004.2 -- 98
2020-09-11 05:00:00 21.5 8 Este 14 Sudeste 0 1004.4 -- 97
2020-09-11 04:00:00 21.7 9 Este 16 Este 0 1004.8 -- 98
2020-09-11 03:00:00 21.5 7 Este 16 Este 0 1005.1 -- 97
2020-09-11 02:00:00 21.7 10 Este 16 Nordeste 0 1005.6 -- 94
2020-09-11 01:00:00 21.1 6 Nordeste 13 Nordeste 0 1006 -- 95
2020-09-11 00:00:00 20.7 4 Nordeste 12 Nordeste 0 1006.1 -- 96
2020-09-10 23:00:00 21 3 Norte 10 Este 0 1005.9 -- 95
2020-09-10 22:00:00 22 6 Sudeste 14 Sur 0 1005.5 -- 93
2020-09-10 21:00:00 22.3 11 Sur 17 Sudeste 0 1004.8 -- 91
2020-09-10 20:00:00 22.9 12 Sur 22 Sur 0 1004.7 -- 86
2020-09-10 19:00:00 23.8 13 Sur 25 Sur 0 1004.9 -- 82
2020-09-10 18:00:00 24.7 16 Sur 25 Sur 0 1005.3 -- 76
2020-09-10 17:00:00 24.3 13 Sur 22 Sur 0 1005.9 -- 79
2020-09-10 16:00:00 24.6 13 Sudeste 21 Sudeste 0 1006.7 -- 79
2020-09-10 15:00:00 24.6 12 Sudeste 20 Sudeste 0 1007.4 -- 78
2020-09-10 14:00:00 24.2 12 Sudeste 25 Este 0 1008.1 -- 80
2020-09-10 13:00:00 25.3 12 Sudeste 22 Este 0 1008.7 -- 74
2020-09-10 12:00:00 24.6 14 Sudeste 22 Este 0 1009.1 -- 77
2020-09-10 11:00:00 24 15 Este 23 Este 0 1009.2 -- 82
2020-09-10 10:00:00 23.2 11 Este 18 Sudeste 0 1009.2 -- 85
2020-09-10 09:00:00 21.9 8 Este 17 Este 0 1008.8 -- 92
2020-09-10 08:00:00 20.6 8 Este 14 Este 0 1008.5 -- 96
2020-09-10 07:00:00 20.6 8 Este 19 Este 0 1008.4 -- 95
2020-09-10 06:00:00 20.6 10 Este 18 Nordeste 0 1008.6 -- 97
2020-09-10 05:00:00 20.8 9 Nordeste 19 Este 0 1008.9 -- 97
2020-09-10 04:00:00 20.6 9 Nordeste 19 Nordeste 0 1009 -- 99
2020-09-10 03:00:00 20.4 8 Nordeste 16 Nordeste 0 1009.5 -- 99
2020-09-10 02:00:00 20.5 8 Nordeste 14 Este 0 1009.9 -- 98
2020-09-10 01:00:00 21.4 6 Sudeste 13 Sur 0 1010 -- 96
2020-09-10 00:00:00 21.6 9 Sur 16 Este 0 1010.1 -- 95
2020-09-09 23:00:00 21.7 10 Sudeste 15 Sudeste 0 1009.9 -- 94
2020-09-09 22:00:00 21.9 9 Sudeste 19 Sur 0 1009.4 -- 93
2020-09-09 21:00:00 22.2 8 Sudeste 22 Sur 0 1008.5 -- 90
2020-09-09 20:00:00 22.5 13 Sur 22 Sudeste 0 1008.4 -- 88
2020-09-09 19:00:00 23.3 12 Sudeste 21 Sudeste 0 1008.4 -- 85
2020-09-09 18:00:00 24.5 14 Este 24 Sudeste 0 1008.6 -- 78
2020-09-09 17:00:00 25 16 Este 26 Este 0 1009.1 -- 75
2020-09-09 16:00:00 24.6 14 Nordeste 28 Este 0 1009.4 -- 76
2020-09-09 15:00:00 26 17 Sudeste 29 Sudeste 0 1009.8 -- 71
2020-09-09 14:00:00 26 14 Este 29 Sudeste 0 1010.1 -- 70
2020-09-09 13:00:00 24.5 13 Este 21 Este 0 1010.6 -- 76
2020-09-09 12:00:00 23 15 Nordeste 23 Nordeste 0 1010.9 -- 83
2020-09-09 11:00:00 22 14 Nordeste 24 Nordeste 0 1011.1 -- 88
2020-09-09 10:00:00 21.4 7 Nordeste 15 Nordeste 0 1010.4 -- 92
2020-09-09 09:00:00 20.3 5 Norte 12 Nordeste 0 1009.9 -- 96
2020-09-09 08:00:00 19.8 6 Norte 14 Norte 0 1009.5 -- 97
2020-09-09 07:00:00 20 5 Norte 15 Nordeste 0 1009 -- 96
2020-09-09 06:00:00 20.5 9 Nordeste 15 Este 0 1008.8 -- 94
2020-09-09 05:00:00 21.2 9 Nordeste 29 Sudeste 0 1008.9 -- 92
2020-09-09 04:00:00 22 12 Este 23 Este 0 1009.3 -- 91
2020-09-09 03:00:00 21.9 11 Este 23 Sudeste 0 1009.8 -- 92
2020-09-09 02:00:00 22.1 14 Este 25 Este 0 1010 -- 92
2020-09-09 01:00:00 21.6 9 Este 17 Este 0 1010.1 -- 94
2020-09-09 00:00:00 21.6 9 Sudeste 14 Este 0 1010.3 -- 94
2020-09-08 23:00:00 21.9 8 Sudeste 18 Sudeste 0 1010.4 -- 93
2020-09-08 22:00:00 22.1 10 Sudeste 20 Sudeste 0 1009.9 -- 94
2020-09-08 21:00:00 22.3 11 Sudeste 27 Sudeste 0 1009.2 -- 91
2020-09-08 20:00:00 22.6 12 Sudeste 27 Este 0 1009 -- 89
2020-09-08 19:00:00 23.8 17 Sudeste 31 Este 0 1008.8 -- 83
2020-09-08 18:00:00 22.9 18 Este 31 Este 0 1008.9 -- 87
2020-09-08 17:00:00 23.2 17 Este 35 Este 0 1008.9 -- 86
2020-09-08 16:00:00 24.2 18 Este 36 Este 0 1009 -- 83
2020-09-08 15:00:00 25.1 18 Este 38 Nordeste 0 1009.3 -- 80
2020-09-08 14:00:00 24.5 21 Este 36 Este 0 1009.4 -- 83
2020-09-08 13:00:00 25.1 21 Este 34 Este 0 1009.4 -- 81
2020-09-08 12:00:00 24.7 21 Este 33 Este 0 1009.6 -- 81
2020-09-08 11:00:00 25 19 Este 34 Este 0 1009.4 -- 81
2020-09-08 10:00:00 23 13 Este 24 Este 0 1008.9 -- 94
2020-09-08 09:00:00 22.1 8 Sudeste 18 Sudeste 0 1008.7 -- 96
2020-09-08 08:00:00 22.1 12 Sudeste 21 Sudeste 0 1008.3 -- 94
2020-09-08 07:00:00 21.9 10 Sudeste 18 Este 0 1008.2 -- 95
2020-09-08 06:00:00 21.3 6 Este 18 Nordeste 0 1008.2 -- 98
2020-09-08 05:00:00 21.4 11 Nordeste 20 Nordeste 0 1008.3 -- 97
2020-09-08 04:00:00 21.1 10 Nordeste 15 Nordeste 0 1008.5 -- 96
2020-09-08 03:00:00 22.8 9 Este 20 Este 0 1008.4 -- 92
2020-09-08 02:00:00 22.9 13 Este 22 Este 0 1008.7 -- 92
2020-09-08 01:00:00 22.4 4 Nordeste 10 Sur 0 1008.4 -- 91
2020-09-08 00:00:00 22.7 6 Sur 10 Sur 0 1007.7 -- 92
2020-09-07 23:00:00 22.9 5 Sur 9 Sur 0 1006.7 -- 92
2020-09-07 22:00:00 23.2 5 Sudeste 8 Sur 0 1005.6 -- 89
2020-09-07 21:00:00 22.9 2 Este 9 Sur 0 1004.6 -- 79
2020-09-07 20:00:00 24.6 8 Sur 14 Sur 0 1004.1 -- 78
2020-09-07 19:00:00 25.6 10 Sur 19 Sur 0 1003.9 -- 75
2020-09-07 18:00:00 25.6 14 Sur 26 Sur 0 1003.9 -- 75
2020-09-07 17:00:00 26 15 Sur 23 Sur 0 1004 -- 71
2020-09-07 16:00:00 25.5 13 Sur 22 Sur 0 1004.8 -- 74
2020-09-07 15:00:00 25.4 9 Sudeste 19 Sur 0 1005.4 -- 78
2020-09-07 14:00:00 24.9 11 Sudeste 17 Sur 0 1005.8 -- 80
2020-09-07 13:00:00 24.7 10 Sudeste 16 Sudeste 0 1006.1 -- 80
2020-09-07 12:00:00 22.9 6 Nordeste 14 Nordeste 0 1006.2 -- 87
2020-09-07 11:00:00 24.2 7 Sur 12 Sudeste 0 1006 -- 83
2020-09-07 10:00:00 22.9 7 Sur 10 Sur 0 1005.9 -- 91
2020-09-07 09:00:00 21.2 5 Sur 11 Sur 0 1005.7 -- 99
2020-09-07 08:00:00 20.9 6 Sur 14 Sudeste 0 1005.4 -- 98
2020-09-07 07:00:00 21.2 7 Este 14 Este 0 1005.3 -- 98
2020-09-07 06:00:00 21.2 4 Este 14 Sudeste 0 1005.3 -- 98
2020-09-07 05:00:00 21.4 9 Este 14 Este 0 1005.5 -- 97
2020-09-07 04:00:00 21.7 6 Este 17 Este 0 1005.9 -- 96
2020-09-07 03:00:00 21.7 7 Este 18 Este 0 1006.1 -- 96
2020-09-07 02:00:00 21.5 9 Sudeste 14 Sudeste 0 1006.3 -- 98
2020-09-07 01:00:00 21 6 Sur 12 Sur 0 1006.3 -- 98
2020-09-07 00:00:00 21 6 Sur 12 Sur 0 1006.2 -- 98
2020-09-06 23:00:00 21.4 8 Sur 12 Sur 0 1006 -- 97
2020-09-06 22:00:00 21.7 6 Sur 10 Sur 0 1005.8 -- 95
2020-09-06 21:00:00 21.8 9 Sur 14 Sudeste 0 1005.1 -- 95
2020-09-06 20:00:00 22.5 9 Sudeste 21 Este 0 1005 -- 90
2020-09-06 19:00:00 23.9 15 Este 25 Sudeste 0 1005.1 -- 84
2020-09-06 18:00:00 24.2 13 Este 26 Nordeste 0 1005.3 -- 80
2020-09-06 17:00:00 23.8 14 Nordeste 28 Este 0 1005.7 -- 84
2020-09-06 16:00:00 24.4 17 Nordeste 26 Sudeste 0 1006.1 -- 80
2020-09-06 15:00:00 26.3 18 Este 30 Este 0 1006.5 -- 69
2020-09-06 14:00:00 26.1 19 Este 31 Sudeste 0 1006.8 -- 71
2020-09-06 13:00:00 25.7 19 Este 29 Este 0 1007.2 -- 72
2020-09-06 12:00:00 25.2 19 Este 28 Este 0 1006.9 -- 74
2020-09-06 11:00:00 25 16 Este 26 Sudeste 0 1006.6 -- 76
2020-09-06 10:00:00 23.4 13 Este 21 Este 0 1006.1 -- 86
2020-09-06 09:00:00 21.7 11 Este 17 Este 0 1006 -- 93
2020-09-06 08:00:00 20.8 7 Este 14 Este 0 1005.7 -- 97
2020-09-06 07:00:00 21.2 9 Este 18 Este 0 1005.4 -- 97
2020-09-06 06:00:00 21.3 12 Este 19 Este 0 1005.5 -- 97
2020-09-06 05:00:00 21.3 12 Este 19 Este 0 1005.6 -- 97
2020-09-06 04:00:00 21.5 10 Este 20 Este 0 1006.1 -- 97
2020-09-06 03:00:00 21.8 11 Este 22 Sudeste 0 1006.6 -- 96
2020-09-06 02:00:00 21.7 10 Este 19 Este 0 1007.2 -- 96
2020-09-06 01:00:00 21.7 11 Sudeste 22 Sudeste 0 1007.5 -- 96
2020-09-06 00:00:00 21.8 12 Sudeste 21 Sudeste 0 1007.6 -- 94
2020-09-05 23:00:00 21.9 11 Sudeste 20 Sudeste 0 1007.5 -- 94
2020-09-05 22:00:00 21.9 13 Sudeste 19 Sudeste 0 1006.9 -- 94
2020-09-05 21:00:00 22.1 10 Sudeste 20 Sudeste 0 1006.4 -- 94
2020-09-05 20:00:00 22.7 10 Sudeste 26 Este 0 1006.2 -- 91
2020-09-05 19:00:00 23.6 15 Este 29 Este 0 1006.5 -- 85
2020-09-05 18:00:00 24.6 19 Este 32 Este 0 1006.7 -- 80
2020-09-05 17:00:00 25.1 15 Este 32 Este 0 1007.2 -- 78
2020-09-05 16:00:00 25.3 17 Este 33 Este 0 1008 -- 76
2020-09-05 15:00:00 25.6 14 Este 29 Sudeste 0 1008.5 -- 76
2020-09-05 14:00:00 24.5 19 Nordeste 30 Este 0 1009 -- 80
2020-09-05 13:00:00 23.9 14 Este 25 Nordeste 0 1009.4 -- 84
2020-09-05 12:00:00 23.2 15 Este 26 Nordeste 0 1009.6 -- 87
2020-09-05 11:00:00 22.5 14 Este 23 Este 0 1009.5 -- 90
2020-09-05 10:00:00 22.7 14 Este 24 Sudeste 0 1009.3 -- 91
2020-09-05 09:00:00 22.3 12 Este 24 Este 0 1009.3 -- 93
2020-09-05 08:00:00 21.9 10 Este 21 Este 0 1009.1 -- 94
2020-09-05 07:00:00 21.9 14 Este 26 Este 0 1008.9 -- 93
2020-09-05 06:00:00 22 14 Este 27 Este 0 1008.8 -- 93
2020-09-05 05:00:00 22.2 13 Este 27 Este 0 1009.3 -- 92
2020-09-05 04:00:00 22.1 15 Este 32 Nordeste 0 1009.7 -- 92
2020-09-05 03:00:00 22.1 15 Este 26 Este 0 1010.1 -- 92
2020-09-05 02:00:00 22.1 14 Este 32 Este 0 1010.6 -- 92
2020-09-05 01:00:00 22.2 17 Este 25 Este 0 1010.9 -- 91
2020-09-05 00:00:00 22.4 13 Este 28 Este 0 1011 -- 92
2020-09-04 23:00:00 22.6 13 Este 23 Este 0 1011 -- 91
2020-09-04 22:00:00 23.2 12 Este 24 Este 0 1010.6 -- 89
2020-09-04 21:00:00 23.5 15 Este 26 Este 0 1010.1 -- 86
2020-09-04 20:00:00 23.8 15 Este 27 Sudeste 0 1010 -- 85
2020-09-04 19:00:00 24.5 16 Este 30 Sudeste 0 1010.2 -- 82
2020-09-04 18:00:00 25.4 18 Este 33 Este 0 1010.3 -- 78
2020-09-04 17:00:00 25.2 19 Este 34 Este 0 1010.6 -- 78
2020-09-04 16:00:00 25.8 19 Este 40 Este 0 1010.9 -- 75
2020-09-04 15:00:00 25.3 21 Este 42 Este 0 1011.4 -- 77
2020-09-04 14:00:00 25.3 26 Este 41 Este 0 1011.6 -- 77
2020-09-04 13:00:00 24.9 24 Este 39 Este 0 1012.1 -- 78
2020-09-04 12:00:00 25.1 21 Este 40 Este 0 1012 -- 78
2020-09-04 11:00:00 23.2 15 Este 30 Sudeste 0 1011.9 -- 88
2020-09-04 10:00:00 23.4 19 Este 35 Este 0 1011.3 -- 86
2020-09-04 09:00:00 22.8 13 Este 26 Sudeste 0 1010.8 -- 90
2020-09-04 08:00:00 22.2 15 Este 31 Este 0 1010.4 -- 92
2020-09-04 07:00:00 22.2 15 Este 32 Este 0 1010 -- 93
2020-09-04 06:00:00 22.1 16 Este 33 Este 0 1009.9 -- 94
2020-09-04 05:00:00 22.4 18 Este 36 Este 0 1009.7 -- 91
2020-09-04 04:00:00 22.4 18 Este 35 Este 0 1010 -- 92
2020-09-04 03:00:00 22.5 19 Este 33 Este 0 1010.4 -- 91
2020-09-04 02:00:00 22.4 15 Este 24 Sudeste 0 1011 -- 93
2020-09-04 01:00:00 22.6 11 Sudeste 21 Sudeste 0 1011.2 -- 92
2020-09-04 00:00:00 22.8 12 Sudeste 22 Sudeste 0 1011.1 -- 92
2020-09-03 23:00:00 22.8 10 Sur 18 Sudeste 0 1010.6 -- 91
2020-09-03 22:00:00 22.9 10 Sudeste 19 Sur 0 1010.1 -- 91
2020-09-03 21:00:00 23.2 11 Sudeste 24 Sudeste 0 1009.4 -- 89
2020-09-03 20:00:00 23.5 13 Sudeste 23 Este 0 1008.9 -- 87
2020-09-03 19:00:00 24.3 14 Sudeste 28 Sudeste 0 1008.9 -- 84
2020-09-03 18:00:00 24.6 17 Sudeste 29 Sudeste 0 1008.8 -- 82
2020-09-03 17:00:00 24.4 16 Sudeste 31 Sudeste 0 1009 -- 84
2020-09-03 16:00:00 24.4 20 Este 35 Este 0 1009.3 -- 84
2020-09-03 15:00:00 25.9 20 Este 38 Este 0 1009.4 -- 77
2020-09-03 14:00:00 25.1 28 Este 46 Este 0 1009.5 -- 81
2020-09-03 13:00:00 24.9 20 Este 35 Este 0 1009.5 -- 82
2020-09-03 12:00:00 24.1 15 Este 33 Nordeste 0 1009.5 -- 84
2020-09-03 11:00:00 22.7 19 Nordeste 32 Nordeste 0 1009.5 -- 89
2020-09-03 10:00:00 22.2 17 Nordeste 31 Nordeste 0 1008.8 -- 91
2020-09-03 09:00:00 22.5 10 Nordeste 27 Este 0 1008.4 -- 90
2020-09-03 08:00:00 21.8 12 Este 24 Este 0 1007.8 -- 93
2020-09-03 07:00:00 21.7 9 Este 25 Este 0 1007.5 -- 92
2020-09-03 06:00:00 22.1 13 Este 23 Este 0 1007.3 -- 92
2020-09-03 05:00:00 22.2 13 Este 28 Este 0 1007.1 -- 91
2020-09-03 04:00:00 22 14 Este 24 Este 0 1007.3 -- 94
2020-09-03 03:00:00 22 14 Este 22 Este 0 1007.4 -- 95
2020-09-03 02:00:00 22.1 12 Sudeste 18 Sudeste 0 1007.4 -- 95
2020-09-03 01:00:00 22 11 Sudeste 26 Este 0 1007.5 -- 95
2020-09-03 00:00:00 21.9 14 Este 24 Este 0 1007.5 -- 94
2020-09-02 23:00:00 22.2 13 Este 22 Sudeste 0 1007.3 -- 91
2020-09-02 22:00:00 22 11 Este 18 Este 0 1006.7 -- 90
2020-09-02 21:00:00 22.4 10 Sudeste 21 Este 0 1006 -- 88
2020-09-02 20:00:00 23 11 Sudeste 23 Este 0 1005.7 -- 85
2020-09-02 19:00:00 23.8 13 Este 28 Este 0 1005.3 -- 82
2020-09-02 18:00:00 23.9 18 Este 32 Sudeste 0 1005.3 -- 81
2020-09-02 17:00:00 24.8 19 Este 30 Sudeste 0 1005.3 -- 76
2020-09-02 16:00:00 25.4 18 Este 31 Sudeste 0 1005.3 -- 74
2020-09-02 15:00:00 25.7 17 Este 27 Este 0 1005.5 -- 74
2020-09-02 14:00:00 23.2 13 Nordeste 21 Nordeste 0 1005.4 -- 83
2020-09-02 13:00:00 23.2 10 Nordeste 17 Nordeste 0 1005.4 -- 83
2020-09-02 12:00:00 22.5 9 Nordeste 17 Nordeste 0 1005.4 -- 83
2020-09-02 11:00:00 21 4 Norte 10 Nordeste 0 1004.8 -- 96
2020-09-02 10:00:00 19.5 4 Nordeste 9 Nordeste 0 1004.4 -- 100
2020-09-02 09:00:00 19.2 3 Norte 7 Norte 0 1003.9 -- 100
2020-09-02 08:00:00 19.2 3 Norte 7 Norte 0 1003.6 -- 100
2020-09-02 07:00:00 18.9 3 Norte 6 Norte 0 1003.1 -- 99
2020-09-02 06:00:00 18.6 3 Norte 7 Sudoeste 0 1002.8 -- 98
2020-09-02 05:00:00 20.6 4 Sudoeste 8 Sudoeste 0 1002.7 -- 93
2020-09-02 04:00:00 20.9 4 Sudoeste 9 Sudoeste 0 1002.9 -- 93
2020-09-02 03:00:00 20.6 4 Sudoeste 9 Sudoeste 0 1002.9 -- 93
2020-09-02 02:00:00 20.9 6 Sudoeste 9 Sudoeste 0 1003.1 -- 92
2020-09-02 01:00:00 20.7 2 Sur 7 Sudoeste 0 1003.1 -- 93
2020-09-02 00:00:00 20.9 6 Oeste 8 Oeste 0 1003.1 -- 93
2020-09-01 23:00:00 21.6 5 Sudoeste 8 Sudoeste 0 1003 -- 91
2020-09-01 22:00:00 22.3 4 Sudoeste 15 Sur 0 1002.9 -- 88
2020-09-01 21:00:00 22.9 10 Sur 20 Sur 0 1002.1 -- 87
2020-09-01 20:00:00 23.2 13 Sur 19 Sur 0 1002 -- 87
2020-09-01 19:00:00 23.8 12 Sur 19 Sur 0 1002.2 -- 84
2020-09-01 18:00:00 24.1 10 Sudeste 21 Este 0 1002.4 -- 82
2020-09-01 17:00:00 25.4 13 Sudeste 22 Este 0 1002.6 -- 76
2020-09-01 16:00:00 25.8 13 Este 26 Este 0 1003.1 -- 74
2020-09-01 15:00:00 24.5 9 Este 23 Nordeste 0 1003.6 -- 77
2020-09-01 14:00:00 24.3 13 Este 22 Nordeste 0 1004.2 -- 78
2020-09-01 13:00:00 24.2 14 Este 25 Nordeste 0 1004.2 -- 78
2020-09-01 12:00:00 24.1 14 Nordeste 24 Este 0 1004.3 -- 80
2020-09-01 11:00:00 21.9 9 Nordeste 19 Nordeste 0 1004.6 -- 85
2020-09-01 10:00:00 21.4 7 Nordeste 12 Este 0 1004.3 -- 91
2020-09-01 09:00:00 20.8 6 Nordeste 15 Nordeste 0 1003.9 -- 97
2020-09-01 08:00:00 20.6 8 Nordeste 15 Nordeste 0 1003.6 -- 97
2020-09-01 07:00:00 20.9 8 Nordeste 17 Nordeste 0 1003.5 -- 95
2020-09-01 06:00:00 22 9 Este 18 Este 0 1003.5 -- 93
2020-09-01 05:00:00 21.6 11 Este 23 Este 0 1003.8 -- 92
2020-09-01 04:00:00 20.8 9 Este 16 Nordeste 0 1004.4 -- 93
2020-09-01 03:00:00 20.6 8 Nordeste 18 Este 0 1005 -- 93
2020-09-01 02:00:00 22.1 10 Nordeste 20 Este 0 1005.4 -- 89
2020-09-01 01:00:00 22.1 10 Este 17 Este 0 1005.6 -- 88
2020-09-01 00:00:00 22.4 10 Sudeste 19 Sudeste 0 1005.8 -- 86
2020-08-31 23:00:00 22.6 13 Sudeste 26 Este 0 1005.8 -- 85
2020-08-31 22:00:00 22.8 14 Sudeste 26 Sudeste 0 1005.5 -- 85
2020-08-31 21:00:00 23 14 Este 23 Este 0 1004.8 -- 84
2020-08-31 20:00:00 23.5 17 Este 32 Este 0 1004.7 -- 82
2020-08-31 19:00:00 25.1 17 Este 34 Sudeste 0 1004.9 -- 76
2020-08-31 18:00:00 25.4 22 Este 37 Este 0 1005.1 -- 75
2020-08-31 17:00:00 25.3 23 Este 39 Sudeste 0 1005.4 -- 75
2020-08-31 16:00:00 26.2 24 Este 41 Este 0 1005.9 -- 70
2020-08-31 15:00:00 26 27 Este 44 Este 0 1006.7 -- 70
2020-08-31 14:00:00 25.9 27 Este 44 Este 0 1007 -- 71
2020-08-31 13:00:00 25.8 26 Este 45 Este 0 1007.1 -- 72
2020-08-31 12:00:00 25.2 27 Este 41 Este 0 1007.1 -- 74
2020-08-31 11:00:00 25.3 20 Este 37 Este 0 1006.6 -- 75
2020-08-31 10:00:00 24.4 21 Este 36 Este 0 1006.2 -- 81
2020-08-31 09:00:00 23 18 Este 32 Este 0 1005.9 -- 89
2020-08-31 08:00:00 22.5 16 Este 32 Sudeste 0 1005.6 -- 91
2020-08-31 07:00:00 22.5 17 Este 30 Este 0 1005 -- 91
2020-08-31 06:00:00 22.5 14 Este 29 Este 0 1004.8 -- 93
2020-08-31 05:00:00 22.3 15 Este 29 Este 0 1004.8 -- 94
2020-08-31 04:00:00 22.3 13 Este 22 Este 0 1004.8 -- 94
2020-08-31 03:00:00 22.1 13 Este 26 Este 0 1005 -- 93
2020-08-31 02:00:00 22.2 12 Este 21 Este 0 1005 -- 92
2020-08-31 01:00:00 22.2 9 Este 18 Este 0 1005 -- 93
2020-08-31 00:00:00 22.4 9 Este 15 Sudeste 0 1004.7 -- 90
2020-08-30 23:00:00 22.8 10 Sudeste 17 Sudeste 0 1004.3 -- 88
2020-08-30 22:00:00 22.7 6 Sudeste 17 Sur 0 1003.3 -- 88
2020-08-30 21:00:00 23 10 Sur 18 Sudeste 0 1002.3 -- 86
2020-08-30 20:00:00 23.7 10 Sudeste 19 Sudeste 0 1001.9 -- 82
2020-08-30 19:00:00 24.4 10 Sudeste 24 Este 0 1001.6 -- 79
2020-08-30 18:00:00 24.8 15 Este 26 Este 0 1001.5 -- 77
2020-08-30 17:00:00 22.8 10 Nordeste 19 Nordeste 0 1001.6 -- 84
2020-08-30 16:00:00 24.3 9 Norte 17 Norte 0 1001.7 -- 79
2020-08-30 15:00:00 22.5 11 Nordeste 19 Nordeste 0 1001.5 -- 86
2020-08-30 14:00:00 23.8 8 Nordeste 17 Nordeste 0 1001.2 -- 77
2020-08-30 13:00:00 22.7 10 Nordeste 26 Norte 0 1001.2 -- 79
2020-08-30 12:00:00 21.3 15 Norte 27 Norte 0 1000.9 -- 85
2020-08-30 11:00:00 20.2 13 Norte 31 Norte 0 1000.3 -- 88
2020-08-30 10:00:00 22.9 14 Norte 28 Norte 0 999.9 -- 63
2020-08-30 09:00:00 23.4 9 Norte 17 Noroeste 0 999.6 -- 46
2020-08-30 08:00:00 23.1 9 Noroeste 21 Noroeste 0 999.1 -- 48
2020-08-30 07:00:00 23.5 10 Noroeste 23 Noroeste 0 999 -- 33
2020-08-30 06:00:00 23.1 14 Noroeste 28 Noroeste 0 998.7 -- 34
2020-08-30 05:00:00 23.6 15 Noroeste 41 Noroeste 0 998.8 -- 32
2020-08-30 04:00:00 23.8 15 Noroeste 32 Oeste 0 998.8 -- 32
2020-08-30 03:00:00 23.8 16 Noroeste 30 Oeste 0 999.1 -- 36
2020-08-30 02:00:00 24.3 17 Noroeste 33 Noroeste 0 999.3 -- 33
2020-08-30 01:00:00 24.6 17 Noroeste 32 Noroeste 0 999.4 -- 33
2020-08-30 00:00:00 24.8 15 Noroeste 28 Noroeste 0 999.2 -- 28
2020-08-29 23:00:00 23.9 15 Noroeste 31 Oeste 0 998.9 -- 31
2020-08-29 22:00:00 23.1 14 Oeste 37 Noroeste 0 998.2 -- 36
2020-08-29 21:00:00 23.1 14 Oeste 46 Sudoeste 0 997.5 -- 35
2020-08-29 20:00:00 23.3 15 Oeste 39 Oeste 0 997.1 -- 36
2020-08-29 19:00:00 24.4 17 Oeste 38 Oeste 0 997 -- 36
2020-08-29 18:00:00 25 14 Oeste 35 Sudoeste 0 997.1 -- 30
2020-08-29 17:00:00 24.2 13 Sudoeste 33 Sudoeste 0 997.9 -- 47
2020-08-29 16:00:00 24.1 13 Sudoeste 37 Sur 0 998.3 -- 50
2020-08-29 15:00:00 23.7 15 Sudoeste 39 Oeste 0 998.8 -- 53
2020-08-29 14:00:00 23.2 16 Sudoeste 39 Oeste 0 998.7 -- 53
2020-08-29 13:00:00 23.1 16 Oeste 53 Sudoeste 0 998.6 -- 58
2020-08-29 12:00:00 22.1 17 Oeste 46 Sudoeste 0 998.8 -- 62
2020-08-29 11:00:00 21.2 18 Oeste 56 Oeste 0 998.6 -- 65
2020-08-29 10:00:00 20.8 13 Oeste 49 Sudoeste 0 998.4 -- 67
2020-08-29 09:00:00 20.4 18 Oeste 53 Sudoeste 0 997.8 -- 67
2020-08-29 08:00:00 19.9 12 Noroeste 47 Sudoeste 0 997.3 -- 67
2020-08-29 07:00:00 20.8 14 Sudoeste 37 Sudoeste 0 997 -- 63
2020-08-29 06:00:00 21.1 12 Sudeste 30 Sur 0 997.1 -- 68
2020-08-29 05:00:00 21.8 13 Este 30 Sur 0 997.2 -- 66
2020-08-29 04:00:00 22.6 10 Sudoeste 46 Sudoeste 0 997.3 -- 67
2020-08-29 03:00:00 23.5 8 Oeste 38 Sudoeste 0 998 -- 61
2020-08-29 02:00:00 23.8 13 Oeste 37 Oeste 0 998.2 -- 61
2020-08-29 01:00:00 24 14 Oeste 40 Sudoeste 0 998.5 -- 66
2020-08-29 00:00:00 24.3 15 Oeste 40 Oeste 0 998.9 -- 71
2020-08-28 23:00:00 24.9 15 Oeste 46 Noroeste 0 998.6 -- 66
2020-08-28 22:00:00 25.2 18 Oeste 47 Oeste 0 998.4 -- 64
2020-08-28 21:00:00 25.4 20 Oeste 58 Noroeste 0 998.1 -- 59
2020-08-28 20:00:00 25.9 17 Oeste 42 Oeste 0 998.5 -- 56
2020-08-28 19:00:00 27.6 17 Oeste 48 Oeste 0 998.6 -- 52
2020-08-28 18:00:00 28 21 Oeste 50 Noroeste 0 998.8 -- 47
2020-08-28 17:00:00 28.2 20 Oeste 49 Oeste 0 999.1 -- 50
2020-08-28 16:00:00 27.9 20 Oeste 51 Oeste 0 999.8 -- 51
2020-08-28 15:00:00 27.9 19 Oeste 44 Oeste 0 999.8 -- 54
2020-08-28 14:00:00 27 17 Oeste 68 Noroeste 0 999.9 -- 60
2020-08-28 13:00:00 25.8 26 Oeste 69 Oeste 0 1000.1 -- 63
2020-08-28 12:00:00 25.8 17 Oeste 47 Noroeste 0 1000.7 -- 62
2020-08-28 11:00:00 25.3 12 Sudoeste 45 Oeste 0 1001 -- 65
2020-08-28 10:00:00 25.1 13 Sudoeste 41 Sudoeste 0 1001.3 -- 69
2020-08-28 09:00:00 25.1 19 Sudoeste 40 Oeste 0 1001 -- 70
2020-08-28 08:00:00 25.5 9 Oeste 21 Oeste 0 1000.8 -- 63
2020-08-28 07:00:00 25 4 Norte 12 Norte 0 1000.6 -- 59
2020-08-28 06:00:00 24.2 5 Norte 9 Noroeste 0 1000.8 -- 56
2020-08-28 05:00:00 24.2 3 Sur 9 Sudoeste 0 1001 -- 56
2020-08-28 04:00:00 23.7 7 Noroeste 10 Oeste 0 1001.4 -- 62
2020-08-28 03:00:00 24.2 3 Norte 10 Sur 0 1002 -- 64
2020-08-28 02:00:00 24.6 8 Sur 12 Sur 0 1002.8 -- 64
2020-08-28 01:00:00 23.7 4 Sudoeste 10 Sur 0 1003.2 -- 77
2020-08-28 00:00:00 23.2 4 Sudoeste 9 Sur 0 1003.5 -- 92
2020-08-27 23:00:00 23.5 4 Sudoeste 10 Sur 0 1004 -- 90
2020-08-27 22:00:00 24.2 4 Sur 8 Sur 0 1003.8 -- 88
2020-08-27 21:00:00 25 5 Sur 14 Sur 0 1003.6 -- 84
2020-08-27 20:00:00 26 9 Sur 11 Sur 0 1003.7 -- 80
2020-08-27 19:00:00 26.8 6 Sudeste 21 Sur 0 1004.3 -- 76
2020-08-27 18:00:00 26.8 16 Sur 22 Sur 0 1004.6 -- 77
2020-08-27 17:00:00 27 15 Sur 20 Sur 0 1005.2 -- 76
2020-08-27 16:00:00 27 14 Sur 20 Sur 0 1005.9 -- 76
2020-08-27 15:00:00 27.1 12 Sur 19 Sur 0 1006.7 -- 75
2020-08-27 14:00:00 27.2 9 Sudeste 18 Sudeste 0 1007.5 -- 74
2020-08-27 13:00:00 26.2 11 Sudeste 21 Sur 0 1007.6 -- 77
2020-08-27 12:00:00 25.5 14 Sur 22 Sur 0 1007.8 -- 81
2020-08-27 11:00:00 24.8 11 Sur 19 Sur 0 1007.8 -- 83
2020-08-27 10:00:00 24.3 6 Sur 14 Sudeste 0 1007.5 -- 86
2020-08-27 09:00:00 23.6 8 Sur 14 Sur 0 1007.4 -- 89
2020-08-27 08:00:00 23.1 6 Sur 12 Sur 0 1007.3 -- 93
2020-08-27 07:00:00 23.2 6 Sur 12 Sur 0 1007 -- 92
2020-08-27 06:00:00 23.3 5 Sur 13 Sur 0 1007.2 -- 93
2020-08-27 05:00:00 22.9 7 Sur 13 Sur 0 1007.7 -- 96
2020-08-27 04:00:00 21.8 2 Norte 12 Sur 0 1008 -- 91
2020-08-27 03:00:00 23.6 6 Sur 10 Sur 0 1008.1 -- 94
2020-08-27 02:00:00 23.6 6 Sudoeste 15 Sudoeste 0 1008.4 -- 94
2020-08-27 01:00:00 23.6 11 Sudoeste 18 Sur 0 1008.5 -- 93
2020-08-27 00:00:00 23.7 6 Sudoeste 14 Sudoeste 0 1008.2 -- 91
2020-08-26 23:00:00 24 9 Sudoeste 15 Sur 0 1007.9 -- 88
2020-08-26 22:00:00 24.5 10 Sur 19 Sur 0 1007.3 -- 87
2020-08-26 21:00:00 25 11 Sur 18 Sur 0 1006.8 -- 86
2020-08-26 20:00:00 25.8 15 Sur 22 Sur 0 1006.5 -- 83
2020-08-26 19:00:00 26.5 17 Sur 24 Sur 0 1006.7 -- 81
2020-08-26 18:00:00 26.7 14 Sur 22 Sur 0 1007.2 -- 81
2020-08-26 17:00:00 27.4 12 Sur 20 Sudeste 0 1007.6 -- 76
2020-08-26 16:00:00 27.5 12 Sudeste 23 Sur 0 1007.9 -- 74
2020-08-26 15:00:00 27.3 11 Sur 21 Sur 0 1008.3 -- 75
2020-08-26 14:00:00 26 9 Sur 17 Sur 0 1008.8 -- 83
2020-08-26 13:00:00 25.2 12 Sur 20 Sur 0 1009 -- 86
2020-08-26 12:00:00 24.2 8 Sur 13 Sur 0 1009 -- 90
2020-08-26 11:00:00 24.1 7 Sudeste 17 Sur 0 1008.5 -- 90
2020-08-26 10:00:00 23.9 11 Sur 17 Sur 0 1007.9 -- 92
2020-08-26 09:00:00 22.8 4 Sudeste 7 Sur 0 1007.5 -- 96
2020-08-26 08:00:00 21.9 3 Noroeste 9 Nordeste 0 1007.1 -- 97
2020-08-26 07:00:00 23.9 5 Sudeste 10 Sudeste 0 1006.6 -- 89
2020-08-26 06:00:00 22.9 3 Nordeste 6 Sudeste 0 1006.4 -- 93
2020-08-26 05:00:00 22.1 3 Noroeste 9 Nordeste 0 1006.7 -- 96
2020-08-26 04:00:00 24.4 8 Sudeste 17 Sur 0 1006.7 -- 87
2020-08-26 03:00:00 24.4 9 Sur 14 Sudeste 0 1007.1 -- 91
2020-08-26 02:00:00 24.4 8 Sur 12 Sur 0 1007.2 -- 92
2020-08-26 01:00:00 24.4 8 Sur 12 Sur 0 1007.3 -- 95
2020-08-26 00:00:00 24.4 7 Sudeste 13 Sudeste 0 1006.9 -- 95
2020-08-25 23:00:00 24.6 8 Sur 17 Sudeste 0 1006.6 -- 94
2020-08-25 22:00:00 24.6 9 Sudeste 16 Sudeste 0 1005.9 -- 93
2020-08-25 21:00:00 24.8 9 Sur 16 Sur 0 1005 -- 92
2020-08-25 20:00:00 25.1 13 Sudeste 21 Este 0 1004.6 -- 90
2020-08-25 19:00:00 26.5 14 Sudeste 23 Este 0 1004.8 -- 85
2020-08-25 18:00:00 27.1 15 Este 24 Este 0 1004.8 -- 80
2020-08-25 17:00:00 27.9 17 Este 24 Este 0 1005.1 -- 75
2020-08-25 16:00:00 28.2 18 Este 26 Este 0 1005.5 -- 74
2020-08-25 15:00:00 28.1 17 Este 28 Este 0 1005.9 -- 76
2020-08-25 14:00:00 28.4 18 Este 27 Este 0 1006.2 -- 74
2020-08-25 13:00:00 28 18 Este 30 Este 0 1006.4 -- 77
2020-08-25 12:00:00 27.7 15 Este 25 Este 0 1006.3 -- 78
2020-08-25 11:00:00 25.7 13 Nordeste 25 Este 0 1005.7 -- 88
2020-08-25 10:00:00 24.8 11 Este 25 Este 0 1005.4 -- 92
2020-08-25 09:00:00 24.1 14 Este 22 Este 0 1005.2 -- 96
2020-08-25 08:00:00 23.9 13 Este 23 Este 0 1004.8 -- 96
2020-08-25 07:00:00 23.6 10 Este 27 Este 0 1004.5 -- 98
2020-08-25 06:00:00 23.6 11 Este 24 Sudeste 0 1004.7 -- 99
2020-08-25 05:00:00 23.5 9 Este 17 Este 0 1005 -- 99
2020-08-25 04:00:00 23.1 8 Nordeste 16 Este 0 1005.2 -- 98
2020-08-25 03:00:00 24 11 Este 24 Este 0 1005.2 -- 97
2020-08-25 02:00:00 24.2 12 Sudeste 23 Sudeste 0 1005.4 -- 96
2020-08-25 01:00:00 24.3 12 Sudeste 24 Sudeste 0 1005.5 -- 96
2020-08-25 00:00:00 24.2 12 Este 23 Este 0 1005.6 -- 97
2020-08-24 23:00:00 24.4 12 Este 21 Este 0 1005.5 -- 96
2020-08-24 22:00:00 24.5 11 Sudeste 19 Sudeste 0 1004.7 -- 95
2020-08-24 21:00:00 24.7 9 Sudeste 18 Sudeste 0 1004.1 -- 94
2020-08-24 20:00:00 25.2 12 Sudeste 23 Este 0 1004 -- 92
2020-08-24 19:00:00 25.9 15 Este 24 Este 0 1004.2 -- 88
2020-08-24 18:00:00 27.3 17 Este 25 Este 0 1004.6 -- 81
2020-08-24 17:00:00 27.7 17 Este 26 Este 0 1004.8 -- 78
2020-08-24 16:00:00 28.3 13 Este 26 Este 0 1005.5 -- 74
2020-08-24 15:00:00 27.2 15 Este 24 Este 0 1005.9 -- 82
2020-08-24 14:00:00 26.3 13 Este 26 Este 0 1006.1 -- 84
2020-08-24 13:00:00 25 10 Nordeste 22 Nordeste 0 1006.5 -- 90
2020-08-24 12:00:00 23.7 7 Nordeste 18 Este 0 1006.8 -- 94
2020-08-24 11:00:00 24.4 6 Este 14 Este 0 1006.5 -- 94
2020-08-24 10:00:00 23.2 5 Nordeste 10 Este 0 1006.3 -- 97
2020-08-24 09:00:00 22.8 8 Nordeste 12 Nordeste 0 1006.2 -- 98
2020-08-24 08:00:00 22.6 4 Noroeste 9 Nordeste 0 1005.7 -- 98
2020-08-24 07:00:00 22.3 4 Nordeste 14 Norte 0 1005.4 -- 98
2020-08-24 06:00:00 23.2 5 Nordeste 9 Este 0 1005.6 -- 95
2020-08-24 05:00:00 23.3 4 Sudeste 9 Sur 0 1005.7 -- 93
2020-08-24 04:00:00 22.9 7 Sur 15 Sur 0 1005.8 -- 94
2020-08-24 03:00:00 22.7 6 Sur 14 Sur 0 1006.1 -- 98
2020-08-24 02:00:00 22.6 6 Sudeste 9 Sudeste 0 1006.5 -- 99
2020-08-24 01:00:00 22.4 2 Norte 7 Norte 0 1006.7 -- 100
2020-08-24 00:00:00 21.9 4 Norte 9 Norte 0 1006.7 -- 99
2020-08-23 23:00:00 21.3 6 Norte 12 Norte 0 1006.8 -- 99
2020-08-23 22:00:00 22.1 4 Norte 6 Nordeste 0 1006.3 -- 97
2020-08-23 21:00:00 22.9 5 Nordeste 10 Sudeste 0 1005.8 -- 95
2020-08-23 20:00:00 24.7 4 Este 13 Este 0 1005.8 -- 85
2020-08-23 19:00:00 25.8 6 Este 14 Nordeste 0 1006.2 -- 81
2020-08-23 18:00:00 26.8 5 Nordeste 14 Nordeste 0 1006.5 -- 77
2020-08-23 17:00:00 25.3 8 Nordeste 19 Norte 0 1007.2 -- 85
2020-08-23 16:00:00 25.8 12 Norte 21 Norte 0 1007.9 -- 81
2020-08-23 15:00:00 25.8 12 Norte 23 Norte 0 1008.2 -- 78
2020-08-23 14:00:00 25.5 17 Norte 26 Norte 0 1008.2 -- 77
2020-08-23 13:00:00 26.1 11 Norte 22 Norte 0 1008.7 -- 70
2020-08-23 12:00:00 27.2 9 Nordeste 14 Este 0 1008.5 -- 65
2020-08-23 11:00:00 26.6 7 Nordeste 13 Nordeste 0 1008.3 -- 65
2020-08-23 10:00:00 25.5 6 Nordeste 12 Nordeste 0 1008.1 -- 56
2020-08-23 09:00:00 25.9 5 Nordeste 8 Este 0 1007.9 -- 48
2020-08-23 08:00:00 23.3 3 Noroeste 9 Sudoeste 0 1007.8 -- 49
2020-08-23 07:00:00 23.7 5 Sudoeste 8 Sur 0 1007.7 -- 50
2020-08-23 06:00:00 24.5 4 Oeste 12 Sudoeste 0 1007.5 -- 42
2020-08-23 05:00:00 27.1 8 Sudoeste 19 Noroeste 0 1007.4 -- 36
2020-08-23 04:00:00 30.7 7 Oeste 29 Noroeste 0 1007.4 -- 20
2020-08-23 03:00:00 29.8 10 Noroeste 24 Noroeste 0 1007.7 -- 21
2020-08-23 02:00:00 28.2 4 Sur 10 Sur 0 1008 -- 41
2020-08-23 01:00:00 28.8 4 Sudeste 11 Sur 0 1008 -- 44
2020-08-23 00:00:00 30.1 6 Sudoeste 15 Oeste 0 1007.6 -- 40
2020-08-22 23:00:00 29.4 4 Oeste 11 Noroeste 0 1007.6 -- 42
2020-08-22 22:00:00 30.6 4 Oeste 16 Oeste 0 1007.2 -- 40
2020-08-22 21:00:00 31.2 5 Sudoeste 19 Noroeste 0 1006.6 -- 39
2020-08-22 20:00:00 33 5 Oeste 19 Oeste 0 1006.2 -- 38
2020-08-22 19:00:00 34.7 12 Oeste 26 Oeste 0 1006.2 -- 35
2020-08-22 18:00:00 35.7 11 Oeste 27 Norte 0 1006.7 -- 35
2020-08-22 17:00:00 36.8 9 Oeste 22 Noroeste 0 1007.2 -- 33
2020-08-22 16:00:00 36.9 8 Oeste 21 Norte 0 1007.9 -- 32
2020-08-22 15:00:00 36.1 6 Sudeste 19 Oeste 0 1008.4 -- 32
2020-08-22 14:00:00 35.4 7 Sur 23 Norte 0 1008.5 -- 34
2020-08-22 13:00:00 34.8 10 Noroeste 28 Noroeste 0 1008.9 -- 34
2020-08-22 12:00:00 33.8 15 Noroeste 34 Noroeste 0 1009.1 -- 36
2020-08-22 11:00:00 32.5 17 Noroeste 37 Noroeste 0 1008.7 -- 41
2020-08-22 10:00:00 31 19 Noroeste 45 Noroeste 0 1008.2 -- 47
2020-08-22 09:00:00 29.4 24 Noroeste 44 Noroeste 0 1007.6 -- 51
2020-08-22 08:00:00 28 15 Noroeste 45 Noroeste 0 1007 -- 55
2020-08-22 07:00:00 28.6 23 Noroeste 50 Noroeste 0 1006.6 -- 52
2020-08-22 06:00:00 28.8 25 Noroeste 53 Noroeste 0 1006.2 -- 50
2020-08-22 05:00:00 28.9 18 Noroeste 48 Noroeste 0 1006.5 -- 51
2020-08-22 04:00:00 27.9 8 Oeste 24 Noroeste 0 1006.6 -- 42
2020-08-22 03:00:00 27.1 6 Sur 8 Sur 0 1006.8 -- 31
2020-08-22 02:00:00 26.4 2 Sur 13 Sur 0 1006.9 -- 34
2020-08-22 01:00:00 26.6 5 Sudoeste 10 Sudoeste 0 1006.9 -- 35
2020-08-22 00:00:00 28.6 5 Sur 13 Sudoeste 0 1006.6 -- 32
2020-08-21 23:00:00 28.7 5 Sudoeste 14 Sudoeste 0 1006.1 -- 31
2020-08-21 22:00:00 29.1 5 Sudoeste 10 Sur 0 1005.5 -- 37
2020-08-21 21:00:00 30.7 5 Sur 14 Sudoeste 0 1004.7 -- 36
2020-08-21 20:00:00 32.8 4 Sur 16 Noroeste 0 1004.5 -- 31
2020-08-21 19:00:00 34.1 5 Este 13 Este 0 1004.7 -- 28
2020-08-21 18:00:00 33.7 10 Sudeste 14 Sur 0 1004.6 -- 29
2020-08-21 17:00:00 34.4 12 Sur 16 Sur 0 1004.6 -- 27
2020-08-21 16:00:00 33.7 11 Sudeste 15 Sur 0 1004.7 -- 31
2020-08-21 15:00:00 33.9 8 Este 17 Sudeste 0 1005.1 -- 31
2020-08-21 14:00:00 32.8 8 Este 14 Este 0 1005.2 -- 29
2020-08-21 13:00:00 31.1 7 Sudeste 13 Sudeste 0 1005.3 -- 38
2020-08-21 12:00:00 29.3 10 Sudeste 14 Este 0 1005.2 -- 45
2020-08-21 11:00:00 26.4 8 Sudeste 13 Sur 0 1004.8 -- 57
2020-08-21 10:00:00 25.5 4 Nordeste 9 Sur 0 1004.5 -- 58
2020-08-21 09:00:00 23.4 6 Sur 9 Sur 0 1003.8 -- 62
2020-08-21 08:00:00 21.4 5 Sudoeste 8 Sur 0 1003.2 -- 64
2020-08-21 07:00:00 21.5 2 Oeste 10 Sudoeste 0 1003.1 -- 63
2020-08-21 06:00:00 22.1 6 Sudoeste 8 Sudoeste 0 1002.5 -- 63
2020-08-21 05:00:00 22.8 3 Sur 8 Sur 0 1002.3 -- 57
2020-08-21 04:00:00 23 4 Sudoeste 6 Sudoeste 0 1002.1 -- 44
2020-08-21 03:00:00 23.6 2 Nordeste 5 Nordeste 0 1002.4 -- 43
2020-08-21 02:00:00 24.2 3 Oeste 8 Sudoeste 0 1002.4 -- 37
2020-08-21 01:00:00 24.9 6 Sudoeste 9 Sudoeste 0 1002.1 -- 46
2020-08-21 00:00:00 24.6 8 Sur 10 Sur 0 1001.9 -- 58